createdAt,value
2023-05-07T00:00:36.169Z,9.40
2023-05-07T00:03:02.986Z,9.60
2023-05-07T00:05:29.825Z,9.47
2023-05-07T00:07:57.838Z,9.57
2023-05-07T00:10:26.400Z,8.90
2023-05-07T00:12:53.065Z,10.07
2023-05-07T00:15:19.613Z,8.90
2023-05-07T00:17:46.178Z,9.67
2023-05-07T00:20:13.217Z,8.57
2023-05-07T00:22:40.143Z,8.30
2023-05-07T00:25:06.952Z,9.20
2023-05-07T00:27:33.519Z,8.80
2023-05-07T00:30:00.007Z,9.27
2023-05-07T00:32:26.697Z,9.00
2023-05-07T00:34:53.319Z,9.17
2023-05-07T00:37:19.780Z,10.00
2023-05-07T00:39:46.323Z,9.07
2023-05-07T00:42:12.833Z,10.17
2023-05-07T00:44:39.350Z,9.97
2023-05-07T00:47:06.035Z,9.57
2023-05-07T00:49:40.330Z,9.50
2023-05-07T00:52:08.044Z,9.67
2023-05-07T00:54:35.275Z,10.60
2023-05-07T00:57:03.836Z,9.83
2023-05-07T00:59:31.854Z,9.20
2023-05-07T01:01:58.548Z,8.83
2023-05-07T01:04:25.716Z,9.07
2023-05-07T01:06:57.491Z,8.90
2023-05-07T01:09:26.087Z,9.30
2023-05-07T01:11:53.489Z,9.90
2023-05-07T01:14:21.469Z,9.70
2023-05-07T01:16:48.893Z,9.57
2023-05-07T01:19:19.207Z,10.07
2023-05-07T01:21:49.934Z,9.73
2023-05-07T01:24:17.030Z,10.70
2023-05-07T01:26:45.011Z,10.80
2023-05-07T01:29:11.654Z,10.47
2023-05-07T01:31:38.680Z,10.70
2023-05-07T01:34:06.114Z,11.47
2023-05-07T01:36:32.882Z,11.50
2023-05-07T01:39:00.124Z,10.60
2023-05-07T01:41:26.902Z,10.47
2023-05-07T01:43:54.514Z,10.97
2023-05-07T01:46:21.514Z,11.47
2023-05-07T01:48:48.427Z,11.43
2023-05-07T01:51:15.011Z,11.57
2023-05-07T01:53:41.754Z,12.73
2023-05-07T01:56:08.564Z,12.40
2023-05-07T01:58:35.146Z,12.17
2023-05-07T02:01:01.815Z,12.37
2023-05-07T02:03:28.705Z,12.00
2023-05-07T02:05:55.244Z,11.03
2023-05-07T02:08:21.947Z,11.70
2023-05-07T02:10:48.506Z,10.70
2023-05-07T02:13:15.176Z,12.80
2023-05-07T02:15:42.090Z,14.07
2023-05-07T02:18:10.197Z,12.83
2023-05-07T02:20:36.725Z,12.50
2023-05-07T02:23:03.354Z,12.10
2023-05-07T02:25:31.115Z,11.90
2023-05-07T02:27:57.824Z,12.63
2023-05-07T02:30:24.795Z,12.37
2023-05-07T02:32:51.428Z,12.87
2023-05-07T02:35:18.458Z,12.90
2023-05-07T02:37:45.094Z,13.53
2023-05-07T02:40:12.952Z,12.80
2023-05-07T02:42:39.656Z,11.40
2023-05-07T02:45:06.769Z,12.40
2023-05-07T02:47:33.286Z,12.30
2023-05-07T02:49:59.954Z,12.27
2023-05-07T02:52:26.446Z,12.73
2023-05-07T02:54:53.213Z,13.33
2023-05-07T02:57:20.201Z,12.77
2023-05-07T02:59:46.825Z,12.30
2023-05-07T03:02:13.577Z,12.63
2023-05-07T03:04:40.573Z,11.70
2023-05-07T03:07:07.436Z,12.10
2023-05-07T03:09:33.920Z,11.63
2023-05-07T03:12:00.725Z,11.10
2023-05-07T03:14:27.276Z,12.37
2023-05-07T03:16:54.160Z,11.80
2023-05-07T03:19:21.063Z,11.30
2023-05-07T03:21:48.338Z,10.67
2023-05-07T03:24:15.050Z,10.90
2023-05-07T03:26:41.912Z,10.90
2023-05-07T03:29:08.856Z,11.70
2023-05-07T03:31:36.144Z,10.43
2023-05-07T03:34:02.864Z,10.67
2023-05-07T03:36:29.719Z,10.10
2023-05-07T03:38:56.797Z,11.73
2023-05-07T03:41:23.868Z,10.60
2023-05-07T03:43:50.884Z,10.23
2023-05-07T03:46:17.987Z,9.40
2023-05-07T03:48:44.990Z,11.20
2023-05-07T03:51:11.959Z,10.00
2023-05-07T03:53:38.798Z,9.83
2023-05-07T03:56:05.733Z,10.37
2023-05-07T03:58:32.616Z,10.50
2023-05-07T04:00:59.552Z,10.17
2023-05-07T04:03:26.191Z,10.90
2023-05-07T04:05:52.804Z,9.67
2023-05-07T04:08:19.468Z,9.30
2023-05-07T04:10:46.086Z,10.33
2023-05-07T04:13:12.906Z,10.30
2023-05-07T04:15:39.485Z,10.10
2023-05-07T04:18:06.381Z,10.50
2023-05-07T04:20:37.306Z,10.27
2023-05-07T04:23:03.941Z,10.40
2023-05-07T04:25:30.482Z,9.43
2023-05-07T04:27:58.162Z,9.80
2023-05-07T04:30:24.755Z,10.93
2023-05-07T04:32:51.743Z,9.90
2023-05-07T04:35:18.418Z,9.27
2023-05-07T04:37:45.179Z,9.70
2023-05-07T04:40:12.218Z,9.70
2023-05-07T04:42:39.153Z,10.00
2023-05-07T04:45:06.315Z,9.57
2023-05-07T04:47:33.478Z,9.77
2023-05-07T04:50:00.008Z,10.43
2023-05-07T04:52:27.612Z,10.03
2023-05-07T04:54:54.375Z,10.17
2023-05-07T04:57:21.147Z,10.03
2023-05-07T04:59:47.677Z,10.37
2023-05-07T05:02:14.234Z,9.53
2023-05-07T05:04:40.761Z,10.70
2023-05-07T05:07:07.250Z,10.90
2023-05-07T05:09:33.844Z,11.80
2023-05-07T05:12:00.759Z,10.40
2023-05-07T05:14:27.312Z,12.10
2023-05-07T05:16:53.788Z,10.43
2023-05-07T05:19:20.417Z,10.90
2023-05-07T05:21:47.056Z,9.93
2023-05-07T05:24:13.618Z,10.80
2023-05-07T05:26:40.151Z,10.10
2023-05-07T05:29:07.388Z,11.27
2023-05-07T05:31:34.679Z,10.80
2023-05-07T05:34:01.280Z,14.00
2023-05-07T05:36:27.804Z,12.67
2023-05-07T05:38:54.538Z,10.33
2023-05-07T05:41:21.619Z,11.40
2023-05-07T05:43:48.370Z,11.27
2023-05-07T05:46:15.804Z,11.50
2023-05-07T05:48:42.561Z,12.50
2023-05-07T05:51:09.099Z,11.80
2023-05-07T05:53:36.261Z,11.93
2023-05-07T05:56:02.833Z,12.63
2023-05-07T05:58:29.460Z,12.00
2023-05-07T06:00:56.044Z,13.90
2023-05-07T06:03:22.600Z,13.97
2023-05-07T06:05:49.320Z,14.00
2023-05-07T06:08:15.909Z,14.60
2023-05-07T06:10:42.413Z,14.27
2023-05-07T06:13:08.941Z,14.47
2023-05-07T06:15:35.535Z,14.80
2023-05-07T06:18:02.163Z,14.80
2023-05-07T06:20:28.706Z,15.40
2023-05-07T06:22:55.210Z,16.57
2023-05-07T06:25:21.697Z,19.40
2023-05-07T06:27:48.287Z,15.53
2023-05-07T06:30:15.068Z,16.10
2023-05-07T06:32:42.015Z,16.97
2023-05-07T06:35:09.215Z,16.97
2023-05-07T06:37:35.930Z,17.57
2023-05-07T06:40:02.649Z,17.60
2023-05-07T06:42:29.143Z,17.60
2023-05-07T06:44:56.126Z,16.77
2023-05-07T06:47:22.727Z,16.33
2023-05-07T06:49:49.333Z,18.83
2023-05-07T06:52:15.821Z,17.23
2023-05-07T06:54:42.411Z,17.60
2023-05-07T06:57:09.048Z,17.40
2023-05-07T06:59:35.878Z,17.90
2023-05-07T07:02:02.492Z,17.77
2023-05-07T07:04:29.397Z,16.73
2023-05-07T07:06:57.618Z,17.40
2023-05-07T07:09:24.255Z,17.70
2023-05-07T07:11:50.775Z,18.20
2023-05-07T07:14:17.348Z,19.10
2023-05-07T07:16:43.880Z,18.43
2023-05-07T07:19:10.428Z,18.13
2023-05-07T07:21:36.947Z,19.53
2023-05-07T07:24:03.924Z,20.07
2023-05-07T07:26:30.806Z,20.17
2023-05-07T07:28:57.458Z,18.70
2023-05-07T07:31:24.001Z,20.13
2023-05-07T07:33:53.081Z,20.93
2023-05-07T07:36:19.965Z,19.77
2023-05-07T07:38:46.543Z,20.10
2023-05-07T07:41:13.096Z,19.77
2023-05-07T07:43:39.684Z,21.10
2023-05-07T07:46:06.323Z,19.83
2023-05-07T07:48:32.847Z,20.80
2023-05-07T07:50:59.385Z,19.93
2023-05-07T07:53:26.281Z,19.70
2023-05-07T07:55:54.462Z,18.60
2023-05-07T07:58:25.867Z,20.10
2023-05-07T08:00:52.647Z,19.17
2023-05-07T08:03:20.796Z,18.90
2023-05-07T08:05:47.563Z,17.23
2023-05-07T08:08:14.253Z,17.77
2023-05-07T08:10:40.859Z,18.50
2023-05-07T08:13:07.776Z,17.57
2023-05-07T08:15:34.454Z,17.00
2023-05-07T08:18:04.073Z,17.23
2023-05-07T08:20:30.753Z,17.80
2023-05-07T08:22:57.559Z,17.63
2023-05-07T08:25:24.308Z,17.57
2023-05-07T08:27:50.908Z,16.93
2023-05-07T08:30:17.453Z,18.60
2023-05-07T08:32:44.085Z,16.60
2023-05-07T08:35:10.913Z,15.20
2023-05-07T08:37:37.452Z,15.47
2023-05-07T08:40:06.510Z,15.73
2023-05-07T08:42:36.896Z,14.37
2023-05-07T08:45:06.658Z,14.00
2023-05-07T08:47:40.364Z,14.57
2023-05-07T08:50:07.663Z,14.20
2023-05-07T08:52:34.162Z,15.30
2023-05-07T08:55:01.304Z,14.70
2023-05-07T08:57:27.805Z,17.03
2023-05-07T08:59:54.347Z,16.90
2023-05-07T09:02:21.245Z,15.30
2023-05-07T09:04:47.871Z,14.80
2023-05-07T09:07:14.417Z,16.67
2023-05-07T09:09:40.955Z,16.30
2023-05-07T09:12:07.686Z,16.40
2023-05-07T09:14:34.505Z,15.87
2023-05-07T09:17:01.208Z,15.47
2023-05-07T09:19:28.431Z,14.73
2023-05-07T09:22:05.429Z,15.33
2023-05-07T09:24:36.079Z,13.20
2023-05-07T09:27:03.361Z,12.93
2023-05-07T09:29:31.165Z,13.00
2023-05-07T09:31:58.433Z,13.30
2023-05-07T09:34:24.972Z,12.60
2023-05-07T09:36:51.563Z,13.10
2023-05-07T09:39:18.091Z,13.20
2023-05-07T09:41:46.317Z,14.27
2023-05-07T09:44:14.129Z,14.53
2023-05-07T09:46:43.602Z,13.77
2023-05-07T09:49:15.256Z,14.37
2023-05-07T09:51:50.306Z,12.63
2023-05-07T09:54:17.762Z,13.03
2023-05-07T09:56:45.993Z,14.83
2023-05-07T09:59:17.232Z,13.77
2023-05-07T10:01:45.065Z,14.33
2023-05-07T10:04:12.168Z,13.10
2023-05-07T10:06:39.144Z,13.10
2023-05-07T10:09:06.855Z,13.90
2023-05-07T10:11:35.032Z,14.87
2023-05-07T10:14:04.975Z,14.70
2023-05-07T10:16:37.367Z,14.37
2023-05-07T10:19:10.952Z,13.80
2023-05-07T10:21:39.042Z,15.00
2023-05-07T10:24:11.457Z,12.93
2023-05-07T10:26:38.572Z,13.37
2023-05-07T10:29:11.947Z,14.53
2023-05-07T10:31:38.897Z,13.87
2023-05-07T10:34:14.987Z,13.50
2023-05-07T10:36:41.819Z,15.03
2023-05-07T10:39:08.992Z,14.40
2023-05-07T10:41:35.532Z,14.93
2023-05-07T10:44:03.201Z,14.13
2023-05-07T10:46:30.066Z,14.97
2023-05-07T10:49:03.782Z,13.70
2023-05-07T10:51:34.033Z,14.40
2023-05-07T10:54:12.903Z,15.10
2023-05-07T10:56:48.597Z,15.40
2023-05-07T10:59:36.856Z,16.17
2023-05-07T11:02:05.352Z,16.67
2023-05-07T11:04:35.746Z,14.37
2023-05-07T11:07:12.909Z,12.40
2023-05-07T11:09:54.546Z,13.70
2023-05-07T11:12:36.836Z,14.80
2023-05-07T11:15:13.305Z,12.93
2023-05-07T11:18:00.502Z,11.30
2023-05-07T11:20:53.321Z,12.93
2023-05-07T11:23:35.310Z,11.30
2023-05-07T11:26:01.838Z,11.50
2023-05-07T11:28:31.602Z,10.90
2023-05-07T11:30:58.433Z,12.20
2023-05-07T11:33:27.880Z,11.57
2023-05-07T11:35:54.600Z,10.30
2023-05-07T11:38:21.255Z,12.00
2023-05-07T11:40:52.082Z,9.43
2023-05-07T11:43:18.850Z,9.90
2023-05-07T11:45:49.192Z,10.00
2023-05-07T11:48:17.034Z,10.40
2023-05-07T11:50:53.819Z,10.13
2023-05-07T11:53:21.434Z,10.73
2023-05-07T11:55:47.961Z,9.80
2023-05-07T11:58:21.820Z,9.30
2023-05-07T12:00:52.255Z,10.47
2023-05-07T12:03:19.140Z,9.53
2023-05-07T12:05:46.773Z,10.20
2023-05-07T12:08:20.403Z,11.50
2023-05-07T12:10:48.775Z,11.23
2023-05-07T12:13:23.083Z,10.37
2023-05-07T12:16:08.207Z,9.87
2023-05-07T12:18:38.157Z,9.50
2023-05-07T12:21:05.646Z,10.10
2023-05-07T12:23:32.276Z,8.57
2023-05-07T12:26:00.350Z,8.30
2023-05-07T12:28:27.056Z,8.27
2023-05-07T12:30:53.863Z,7.70
2023-05-07T12:33:25.571Z,8.83
2023-05-07T12:35:54.655Z,8.73
2023-05-07T12:38:21.731Z,9.40
2023-05-07T12:40:52.085Z,9.80
2023-05-07T12:43:22.603Z,8.80
2023-05-07T12:45:51.302Z,9.33
2023-05-07T12:48:18.521Z,6.80
2023-05-07T12:50:45.111Z,8.70
2023-05-07T12:53:13.384Z,9.60
2023-05-07T12:55:48.404Z,7.93
2023-05-07T12:58:20.119Z,9.93
2023-05-07T13:00:49.428Z,9.30
2023-05-07T13:03:27.549Z,9.83
2023-05-07T13:05:58.937Z,8.10
2023-05-07T13:08:27.995Z,7.23
2023-05-07T13:10:54.684Z,8.00
2023-05-07T13:13:22.102Z,8.37
2023-05-07T13:15:49.225Z,8.40
2023-05-07T13:18:16.231Z,8.43
2023-05-07T13:20:42.876Z,7.97
2023-05-07T13:23:09.596Z,8.30
2023-05-07T13:25:37.136Z,7.97
2023-05-07T13:28:10.842Z,7.77
2023-05-07T13:30:38.189Z,7.00
2023-05-07T13:33:05.437Z,7.60
2023-05-07T13:35:32.165Z,7.57
2023-05-07T13:37:59.131Z,7.30
2023-05-07T13:40:26.169Z,7.10
2023-05-07T13:42:52.885Z,7.50
2023-05-07T13:45:19.851Z,6.10
2023-05-07T13:47:47.685Z,6.03
2023-05-07T13:50:14.645Z,6.30
2023-05-07T13:52:51.262Z,6.40
2023-05-07T13:55:19.158Z,7.50
2023-05-07T13:57:46.011Z,7.90
2023-05-07T14:00:13.737Z,6.60
2023-05-07T14:02:41.394Z,7.17
2023-05-07T14:05:08.603Z,7.20
2023-05-07T14:07:35.292Z,7.73
2023-05-07T14:10:01.980Z,7.70
2023-05-07T14:12:28.587Z,7.83
2023-05-07T14:14:55.148Z,7.60
2023-05-07T14:17:21.825Z,8.20
2023-05-07T14:19:48.545Z,7.90
2023-05-07T14:22:16.386Z,8.87
2023-05-07T14:24:43.881Z,8.80
2023-05-07T14:27:10.622Z,8.87
2023-05-07T14:29:37.274Z,8.30
2023-05-07T14:32:04.389Z,7.97
2023-05-07T14:34:30.944Z,8.03
2023-05-07T14:36:57.507Z,7.10
2023-05-07T14:39:24.033Z,6.63
2023-05-07T14:41:50.762Z,6.07
2023-05-07T14:44:17.328Z,6.40
2023-05-07T14:46:44.161Z,5.53
2023-05-07T14:49:17.836Z,5.17
2023-05-07T14:51:46.277Z,6.60
2023-05-07T14:54:16.424Z,5.70
2023-05-07T14:56:43.228Z,5.93
2023-05-07T14:59:10.002Z,7.37
2023-05-07T15:01:37.403Z,5.90
2023-05-07T15:04:08.513Z,6.60
2023-05-07T15:06:35.124Z,4.97
2023-05-07T15:09:01.780Z,5.37
2023-05-07T15:11:28.337Z,5.40
2023-05-07T15:13:54.970Z,5.70
2023-05-07T15:16:21.740Z,6.00
2023-05-07T15:18:48.398Z,5.47
2023-05-07T15:21:17.753Z,6.40
2023-05-07T15:23:45.447Z,3.97
2023-05-07T15:26:12.046Z,4.23
2023-05-07T15:28:40.450Z,4.40
2023-05-07T15:31:07.989Z,3.97
2023-05-07T15:33:34.755Z,3.97
2023-05-07T15:36:01.648Z,3.80
2023-05-07T15:38:28.255Z,3.10
2023-05-07T15:40:55.521Z,3.20
2023-05-07T15:43:22.559Z,3.77
2023-05-07T15:45:49.140Z,3.40
2023-05-07T15:48:15.755Z,3.00
2023-05-07T15:50:42.884Z,2.90
2023-05-07T15:53:10.439Z,2.90
2023-05-07T15:55:37.408Z,3.63
2023-05-07T15:58:05.972Z,3.07
2023-05-07T16:00:32.843Z,3.23
2023-05-07T16:02:59.386Z,3.20
2023-05-07T16:05:25.964Z,3.40
2023-05-07T16:07:52.934Z,3.63
2023-05-07T16:10:19.502Z,3.40
2023-05-07T16:12:46.098Z,2.87
2023-05-07T16:15:12.919Z,2.77
2023-05-07T16:17:39.739Z,2.87
2023-05-07T16:20:09.117Z,3.90
2023-05-07T16:22:36.745Z,3.87
2023-05-07T16:25:04.820Z,3.00
2023-05-07T16:27:31.362Z,3.10
2023-05-07T16:29:58.147Z,2.83
2023-05-07T16:32:25.121Z,2.90
2023-05-07T16:34:51.777Z,2.87
2023-05-07T16:37:18.438Z,2.40
2023-05-07T16:39:45.001Z,3.40
2023-05-07T16:42:11.493Z,2.93
2023-05-07T16:44:38.027Z,3.07
2023-05-07T16:47:04.577Z,2.37
2023-05-07T16:49:31.374Z,3.10
2023-05-07T16:51:57.907Z,3.20
2023-05-07T16:54:24.478Z,2.70
2023-05-07T16:56:51.104Z,2.60
2023-05-07T16:59:18.169Z,2.83
2023-05-07T17:01:45.524Z,2.80
2023-05-07T17:04:12.431Z,3.00
2023-05-07T17:06:39.123Z,3.70
2023-05-07T17:09:05.734Z,2.97
2023-05-07T17:11:34.030Z,3.10
2023-05-07T17:14:01.718Z,3.00
2023-05-07T17:16:29.513Z,3.20
2023-05-07T17:18:58.968Z,3.50
2023-05-07T17:21:25.580Z,3.53
2023-05-07T17:23:52.316Z,3.53
2023-05-07T17:26:18.886Z,3.70
2023-05-07T17:28:45.363Z,4.13
2023-05-07T17:31:12.000Z,4.53
2023-05-07T17:33:38.665Z,4.30
2023-05-07T17:36:05.971Z,4.70
2023-05-07T17:38:32.558Z,4.40
2023-05-07T17:40:59.195Z,3.37
2023-05-07T17:43:26.181Z,4.00
2023-05-07T17:45:52.781Z,3.30
2023-05-07T17:48:19.400Z,3.30
2023-05-07T17:50:46.175Z,4.17
2023-05-07T17:53:12.739Z,4.00
2023-05-07T17:55:43.904Z,4.70
2023-05-07T17:58:13.668Z,7.00
2023-05-07T18:00:40.261Z,7.20
2023-05-07T18:03:07.052Z,8.20
2023-05-07T18:05:36.696Z,8.17
2023-05-07T18:08:03.497Z,8.67
2023-05-07T18:10:30.038Z,9.07
2023-05-07T18:12:56.635Z,10.33
2023-05-07T18:15:23.284Z,10.83
2023-05-07T18:17:49.804Z,10.30
2023-05-07T18:20:16.677Z,10.80
2023-05-07T18:22:43.330Z,11.03
2023-05-07T18:25:10.138Z,11.40
2023-05-07T18:27:36.717Z,12.27
2023-05-07T18:30:04.119Z,11.80
2023-05-07T18:32:30.709Z,12.53
2023-05-07T18:34:57.491Z,11.50
2023-05-07T18:37:26.614Z,11.80
2023-05-07T18:39:53.425Z,12.30
2023-05-07T18:42:20.238Z,12.17
2023-05-07T18:44:47.153Z,12.40
2023-05-07T18:47:13.924Z,12.33
2023-05-07T18:49:40.534Z,13.40
2023-05-07T18:52:07.214Z,13.00
2023-05-07T18:54:33.851Z,12.80
2023-05-07T18:57:00.416Z,12.80
2023-05-07T18:59:26.999Z,13.50
2023-05-07T19:01:53.656Z,13.67
2023-05-07T19:04:20.333Z,15.07
2023-05-07T19:06:47.236Z,14.40
2023-05-07T19:09:14.486Z,13.90
2023-05-07T19:11:41.154Z,15.43
2023-05-07T19:14:07.849Z,14.83
2023-05-07T19:16:34.585Z,15.77
2023-05-07T19:19:01.104Z,15.40
2023-05-07T19:21:28.680Z,15.67
2023-05-07T19:23:57.346Z,15.80
2023-05-07T19:26:24.741Z,15.23
2023-05-07T19:29:06.723Z,14.70
2023-05-07T19:31:38.770Z,15.00
2023-05-07T19:34:05.432Z,14.90
2023-05-07T19:36:34.350Z,15.27
2023-05-07T19:39:01.046Z,13.47
2023-05-07T19:41:28.569Z,14.70
2023-05-07T19:43:55.108Z,16.50
2023-05-07T19:46:21.964Z,16.70
2023-05-07T19:48:48.772Z,15.70
2023-05-07T19:51:15.444Z,17.37
2023-05-07T19:53:41.992Z,17.87
2023-05-07T19:56:10.636Z,17.30
2023-05-07T19:58:37.862Z,15.53
2023-05-07T20:01:05.276Z,16.93
2023-05-07T20:03:33.189Z,17.70
2023-05-07T20:05:59.991Z,17.00
2023-05-07T20:08:27.597Z,16.87
2023-05-07T20:10:54.270Z,18.17
2023-05-07T20:13:20.822Z,16.50
2023-05-07T20:15:47.746Z,17.47
2023-05-07T20:18:15.942Z,16.20
2023-05-07T20:20:42.543Z,17.13
2023-05-07T20:23:09.198Z,16.60
2023-05-07T20:25:35.932Z,16.40
2023-05-07T20:28:02.882Z,17.57
2023-05-07T20:30:29.776Z,17.13
2023-05-07T20:32:56.467Z,16.23
2023-05-07T20:35:23.406Z,17.13
2023-05-07T20:37:49.975Z,17.83
2023-05-07T20:40:16.661Z,17.20
2023-05-07T20:42:43.263Z,16.70
2023-05-07T20:45:10.646Z,18.27
2023-05-07T20:47:37.228Z,18.50
2023-05-07T20:50:04.048Z,17.93
2023-05-07T20:52:30.761Z,16.27
2023-05-07T20:54:57.379Z,16.30
2023-05-07T20:57:24.160Z,16.20
2023-05-07T20:59:50.822Z,16.00
2023-05-07T21:02:17.355Z,17.30
2023-05-07T21:04:44.111Z,17.93
2023-05-07T21:07:10.788Z,17.73
2023-05-07T21:09:37.465Z,17.63
2023-05-07T21:12:04.254Z,17.43
2023-05-07T21:14:32.262Z,17.80
2023-05-07T21:17:00.386Z,16.20
2023-05-07T21:19:27.303Z,15.97
2023-05-07T21:21:57.639Z,16.27
2023-05-07T21:24:24.953Z,16.67
2023-05-07T21:26:55.804Z,16.50
2023-05-07T21:29:23.700Z,17.33
2023-05-07T21:31:50.665Z,16.53
2023-05-07T21:34:17.244Z,16.50
2023-05-07T21:36:43.849Z,17.63
2023-05-07T21:39:11.017Z,15.27
2023-05-07T21:41:37.753Z,16.00
2023-05-07T21:44:05.471Z,16.83
2023-05-07T21:46:33.020Z,16.90
2023-05-07T21:48:59.587Z,16.97
2023-05-07T21:51:26.248Z,16.30
2023-05-07T21:53:52.786Z,16.47
2023-05-07T21:56:19.551Z,16.40
2023-05-07T21:58:46.056Z,16.87
2023-05-07T22:01:12.954Z,16.73
2023-05-07T22:03:40.461Z,15.77
2023-05-07T22:06:07.227Z,15.87
2023-05-07T22:08:33.709Z,17.97
2023-05-07T22:11:00.313Z,16.83
2023-05-07T22:13:27.210Z,16.93
2023-05-07T22:15:58.102Z,15.60
2023-05-07T22:18:26.152Z,15.03
2023-05-07T22:20:52.811Z,17.80
2023-05-07T22:23:19.660Z,16.10
2023-05-07T22:25:46.182Z,17.33
2023-05-07T22:28:12.997Z,15.80
2023-05-07T22:30:39.651Z,15.93
2023-05-07T22:33:06.364Z,15.67
2023-05-07T22:35:32.973Z,17.20
2023-05-07T22:37:59.565Z,15.87
2023-05-07T22:40:26.129Z,16.27
2023-05-07T22:42:52.787Z,17.37
2023-05-07T22:45:19.282Z,16.50
2023-05-07T22:47:45.848Z,17.27
2023-05-07T22:50:12.859Z,16.27
2023-05-07T22:52:39.632Z,16.10
2023-05-07T22:55:06.714Z,15.70
2023-05-07T22:57:33.228Z,17.17
2023-05-07T22:59:59.722Z,16.23
2023-05-07T23:02:28.860Z,15.30
2023-05-07T23:04:58.708Z,15.63
2023-05-07T23:07:25.218Z,15.30
2023-05-07T23:09:52.293Z,14.50
2023-05-07T23:12:19.008Z,17.33
2023-05-07T23:14:45.782Z,14.53
2023-05-07T23:17:12.376Z,15.67
2023-05-07T23:19:39.098Z,15.87
2023-05-07T23:22:05.724Z,14.63
2023-05-07T23:24:32.593Z,13.90
2023-05-07T23:26:59.104Z,16.53
2023-05-07T23:29:26.179Z,15.03
2023-05-07T23:31:52.854Z,14.27
2023-05-07T23:34:23.978Z,14.57
2023-05-07T23:36:51.344Z,14.20
2023-05-07T23:39:18.618Z,14.87
2023-05-07T23:41:45.390Z,14.30
2023-05-07T23:44:12.071Z,15.47
2023-05-07T23:46:38.786Z,14.53
2023-05-07T23:49:05.444Z,14.40
2023-05-07T23:51:32.111Z,14.40
2023-05-07T23:53:58.631Z,14.00
2023-05-07T23:56:25.651Z,13.87
2023-05-07T23:58:53.556Z,13.70
